Time;durP1;ratioP1;P1;durP2;ratioP2;P2;SDS_P1;SDS_P2;PMS_P1;PMS_P2;Temp;Humidity;BMP_temperature;BMP_pressure;BME280_temperature;BME280_humidity;BME280_pressure;Samples;Min_cycle;Max_cycle;Signal;HPM_P1;HPM_P2
2022/02/07 00:00:40;;;;;;;31.63;17.35;;;;;;;7.54;100.00;97064.09;5059239;28;20075;-85
2022/02/07 00:05:32;;;;;;;32.72;16.85;;;;;;;7.60;100.00;97077.59;5060525;28;20127;-87
2022/02/07 00:07:58;;;;;;;38.40;19.02;;;;;;;7.63;100.00;97047.06;5057544;28;20025;-83
2022/02/07 00:10:25;;;;;;;36.03;17.05;;;;;;;7.63;100.00;97042.44;5051586;28;20044;-88
2022/02/07 00:12:50;;;;;;;36.42;18.67;;;;;;;7.59;100.00;97027.78;5045344;28;20079;-89
2022/02/07 00:15:18;;;;;;;35.53;17.80;;;;;;;7.67;100.00;97034.47;5037926;28;20530;-85
2022/02/07 00:17:44;;;;;;;34.92;17.80;;;;;;;7.61;100.00;97014.72;5041310;28;20033;-82
2022/02/07 00:20:18;;;;;;;33.80;16.45;;;;;;;7.68;100.00;97015.13;5058338;28;20033;-87
2022/02/07 00:22:44;;;;;;;33.20;17.73;;;;;;;7.66;100.00;96989.31;5054248;28;20060;-87
2022/02/07 00:25:10;;;;;;;33.95;17.48;;;;;;;7.69;100.00;96994.16;5062224;28;20108;-89
2022/02/07 00:27:36;;;;;;;34.33;16.35;;;;;;;7.68;100.00;96995.25;5048709;28;20036;-82
2022/02/07 00:30:04;;;;;;;29.77;15.43;;;;;;;7.67;100.00;96980.88;5059917;28;20017;-84
2022/02/07 00:32:30;;;;;;;31.17;17.08;;;;;;;7.72;100.00;96974.50;5056753;28;20041;-86
2022/02/07 00:34:55;;;;;;;29.90;16.10;;;;;;;7.72;100.00;96966.34;5056577;28;20048;-85
2022/02/07 00:37:23;;;;;;;36.15;18.13;;;;;;;7.69;100.00;96956.06;5053771;28;20025;-78
2022/02/07 00:39:56;;;;;;;31.02;16.80;;;;;;;7.69;100.00;96956.88;5048806;28;20029;-80
2022/02/07 00:42:32;;;;;;;36.90;17.33;;;;;;;7.71;100.00;96953.81;5052965;28;20064;-80
2022/02/07 00:45:02;;;;;;;30.55;16.35;;;;;;;7.73;100.00;96962.50;5049350;28;20021;-77
2022/02/07 00:47:27;;;;;;;30.90;16.73;;;;;;;7.78;100.00;96956.97;5052287;28;20029;-75
2022/02/07 00:49:54;;;;;;;36.00;17.55;;;;;;;7.72;100.00;96955.44;5052447;28;20031;-76
2022/02/07 00:52:23;;;;;;;32.47;16.98;;;;;;;7.74;100.00;96951.31;5053014;28;20075;-76
2022/02/07 00:54:49;;;;;;;34.17;17.92;;;;;;;7.77;100.00;96958.09;5052783;28;20028;-86
2022/02/07 00:57:14;;;;;;;30.30;16.40;;;;;;;7.77;100.00;96971.69;5052168;28;20044;-82
2022/02/07 00:59:40;;;;;;;42.17;17.55;;;;;;;7.76;100.00;96956.47;5051852;28;20063;-85
2022/02/07 01:02:05;;;;;;;35.38;18.02;;;;;;;7.76;100.00;96940.13;5045992;28;20017;-84
2022/02/07 01:04:30;;;;;;;34.70;18.35;;;;;;;7.72;100.00;96922.78;5040334;28;20033;-84
2022/02/07 01:06:56;;;;;;;36.92;18.42;;;;;;;7.77;100.00;96931.66;5050589;28;20424;-87
2022/02/07 01:09:27;;;;;;;32.53;16.48;;;;;;;7.76;100.00;96929.25;5053793;28;20029;-87
2022/02/07 01:52:25;;;;;;;31.30;15.48;;;;;;;7.70;100.00;96783.50;5055887;28;20075;-87
2022/02/07 01:55:10;;;;;;;29.48;15.45;;;;;;;7.73;100.00;96778.25;5055358;28;20033;-86
2022/02/07 01:57:36;;;;;;;27.93;13.60;;;;;;;7.75;100.00;96758.88;5054591;28;20088;-86
2022/02/07 02:00:04;;;;;;;32.15;16.40;;;;;;;7.77;100.00;96751.22;5054568;28;20304;-87
2022/02/07 02:02:31;;;;;;;29.55;14.73;;;;;;;7.82;100.00;96729.34;5055414;28;20481;-86
2022/02/07 02:05:00;;;;;;;29.02;14.20;;;;;;;7.84;100.00;96730.63;5087242;28;20062;-88
2022/02/07 02:07:25;;;;;;;25.92;14.45;;;;;;;7.73;100.00;96728.47;5046007;28;20089;-86
2022/02/07 02:09:51;;;;;;;28.98;13.93;;;;;;;7.72;100.00;96726.84;5034940;28;20033;-86
2022/02/07 02:12:17;;;;;;;36.75;15.20;;;;;;;7.79;100.00;96716.34;5034507;28;20036;-85
2022/02/07 02:17:26;;;;;;;28.40;13.55;;;;;;;7.76;100.00;96689.75;5034407;28;20051;-87
2022/02/07 02:36:29;;;;;;;24.83;12.73;;;;;;;7.79;100.00;96626.50;5066072;28;20016;-86
2022/02/07 02:46:33;;;;;;;25.85;13.38;;;;;;;7.72;100.00;96607.91;5058381;28;20096;-85
2022/02/07 02:49:02;;;;;;;27.60;14.90;;;;;;;7.74;100.00;96599.41;5054898;28;20437;-86
2022/02/07 02:51:29;;;;;;;25.48;13.55;;;;;;;7.75;100.00;96606.47;5056593;28;20128;-88
2022/02/07 02:53:54;;;;;;;26.63;13.25;;;;;;;7.76;100.00;96598.00;5053323;28;20113;-87
2022/02/07 02:56:20;;;;;;;28.98;14.63;;;;;;;7.65;100.00;96568.63;5053893;28;20057;-86
2022/02/07 02:58:45;;;;;;;31.58;13.52;;;;;;;7.72;100.00;96563.53;5053707;28;20039;-86
2022/02/07 03:01:11;;;;;;;27.38;12.38;;;;;;;7.71;100.00;96556.50;5054450;28;20074;-87
2022/02/07 03:03:36;;;;;;;30.73;14.27;;;;;;;7.68;100.00;96554.38;5056368;28;20102;-89
2022/02/07 03:06:02;;;;;;;27.58;12.43;;;;;;;7.70;100.00;96557.63;5053700;28;20025;-87
2022/02/07 03:08:28;;;;;;;31.95;13.20;;;;;;;7.75;100.00;96573.81;5051673;28;20029;-88
2022/02/07 03:11:05;;;;;;;25.98;13.00;;;;;;;7.72;100.00;96556.19;5054058;28;20033;-87
2022/02/07 03:13:45;;;;;;;24.63;11.95;;;;;;;7.70;100.00;96533.94;5052500;28;20033;-88
2022/02/07 03:18:55;;;;;;;23.80;12.10;;;;;;;7.80;100.00;96568.25;5056929;28;20051;-84
2022/02/07 03:21:21;;;;;;;23.33;12.73;;;;;;;7.83;100.00;96556.75;5057177;28;20466;-87
2022/02/07 03:23:46;;;;;;;26.73;11.45;;;;;;;7.76;100.00;96549.03;5058013;28;20029;-86
2022/02/07 03:26:14;;;;;;;25.60;12.23;;;;;;;7.72;100.00;96547.22;5055816;28;20061;-85
2022/02/07 03:28:39;;;;;;;25.58;12.20;;;;;;;7.70;100.00;96554.91;5057751;28;20378;-87
2022/02/07 03:31:07;;;;;;;27.42;12.13;;;;;;;7.74;100.00;96556.66;5057535;28;20375;-90
2022/02/07 03:33:32;;;;;;;25.17;12.52;;;;;;;7.71;100.00;96551.03;5058830;28;20029;-81
2022/02/07 03:35:58;;;;;;;28.98;12.35;;;;;;;7.62;100.00;96551.00;5059092;28;20490;-82
2022/02/07 03:38:23;;;;;;;25.27;12.07;;;;;;;7.69;100.00;96559.53;5057845;28;20119;-83
2022/02/07 03:40:48;;;;;;;25.63;12.48;;;;;;;7.73;100.00;96570.59;5057130;28;20039;-83
2022/02/07 03:43:14;;;;;;;26.02;12.23;;;;;;;7.73;100.00;96581.50;5061781;28;20024;-84
2022/02/07 03:45:39;;;;;;;22.40;12.05;;;;;;;7.63;100.00;96571.66;5053296;28;20028;-83
2022/02/07 03:48:05;;;;;;;24.63;11.52;;;;;;;7.74;100.00;96589.34;5065558;28;20029;-87
2022/02/07 03:50:30;;;;;;;25.50;12.32;;;;;;;7.77;100.00;96593.38;5060777;28;20051;-87
2022/02/07 03:52:56;;;;;;;24.60;12.48;;;;;;;7.78;100.00;96589.53;5060253;28;20036;-83
2022/02/07 03:55:21;;;;;;;22.73;12.30;;;;;;;7.74;100.00;96599.41;5057979;28;20108;-85
2022/02/07 03:57:46;;;;;;;24.77;12.35;;;;;;;7.81;100.00;96588.91;5060303;28;20049;-86
2022/02/07 04:00:13;;;;;;;24.05;11.05;;;;;;;7.79;100.00;96591.13;5058984;28;20032;-85
2022/02/07 04:02:43;;;;;;;23.85;12.20;;;;;;;7.73;100.00;96551.56;5057365;28;20116;-85
2022/02/07 04:07:49;;;;;;;25.02;11.85;;;;;;;7.73;100.00;96508.00;5059577;28;20033;-87
2022/02/07 04:10:15;;;;;;;25.50;14.25;;;;;;;7.73;100.00;96516.19;5059983;28;20064;-85
2022/02/07 04:12:47;;;;;;;29.70;13.68;;;;;;;7.73;100.00;96532.50;5058201;28;20024;-82
2022/02/07 04:15:16;;;;;;;25.27;12.55;;;;;;;7.76;100.00;96548.22;5057415;28;20032;-88
2022/02/07 04:17:46;;;;;;;27.27;12.25;;;;;;;7.74;100.00;96551.22;5059223;28;20052;-85
2022/02/07 04:20:12;;;;;;;27.13;13.50;;;;;;;7.73;100.00;96549.66;5061512;28;20029;-88
2022/02/07 04:22:38;;;;;;;25.70;13.10;;;;;;;7.69;100.00;96551.38;5060340;28;20433;-89
2022/02/07 04:25:04;;;;;;;27.60;13.02;;;;;;;7.72;100.00;96569.78;5059155;28;20040;-85
2022/02/07 04:27:29;;;;;;;22.55;11.25;;;;;;;7.73;100.00;96593.19;5058765;28;20067;-86
2022/02/07 04:29:55;;;;;;;30.63;12.75;;;;;;;7.70;100.00;96609.31;5057220;28;20036;-89
2022/02/07 04:32:20;;;;;;;25.65;13.27;;;;;;;7.77;100.00;96645.88;5058380;28;20064;-86
2022/02/07 04:34:45;;;;;;;24.42;12.98;;;;;;;7.77;100.00;96664.91;5057850;28;20047;-88
2022/02/07 04:37:11;;;;;;;32.28;13.13;;;;;;;7.75;100.00;96678.03;5057210;28;20025;-86
2022/02/07 04:39:36;;;;;;;30.85;13.77;;;;;;;7.70;100.00;96685.53;5060973;28;20032;-87
2022/02/07 04:42:06;;;;;;;27.88;13.00;;;;;;;7.74;100.00;96705.53;5060626;28;20025;-88
2022/02/07 04:44:39;;;;;;;31.35;13.55;;;;;;;7.66;100.00;96684.53;5060526;28;20025;-83
2022/02/07 04:47:43;;;;;;;24.88;13.27;;;;;;;7.70;100.00;96691.78;5057626;28;20028;-86
2022/02/07 05:00:39;;;;;;;21.83;11.63;;;;;;;7.70;100.00;96745.41;5057192;28;20636;-87
2022/02/07 05:03:12;;;;;;;27.77;11.45;;;;;;;7.73;100.00;96758.38;5056500;28;20029;-85
2022/02/07 05:16:21;;;;;;;29.48;13.35;;;;;;;7.34;100.00;96754.31;5057460;28;20033;-81
2022/02/07 05:18:53;;;;;;;29.25;14.13;;;;;;;7.27;100.00;96770.25;5058117;28;20479;-85
2022/02/07 05:21:19;;;;;;;30.17;14.50;;;;;;;7.23;100.00;96798.34;5053739;28;20282;-85
2022/02/07 05:23:44;;;;;;;31.55;14.68;;;;;;;7.12;100.00;96796.94;5053991;28;20028;-85
2022/02/07 05:26:10;;;;;;;33.80;14.50;;;;;;;7.18;100.00;96853.63;5054808;28;20389;-82
2022/02/07 05:28:36;;;;;;;26.55;10.15;;;;;;;6.89;100.00;96863.97;5054800;28;20406;-81
2022/02/07 05:31:01;;;;;;;12.98;5.50;;;;;;;6.64;100.00;96858.97;5054611;28;20474;-80
2022/02/07 05:33:27;;;;;;;8.73;4.75;;;;;;;6.42;100.00;96867.75;5054716;28;20032;-88
2022/02/07 05:35:52;;;;;;;9.27;4.35;;;;;;;6.22;100.00;96873.47;5053540;28;20032;-85
2022/02/07 05:38:18;;;;;;;18.92;5.55;;;;;;;6.13;100.00;96867.91;5053671;28;20075;-85
2022/02/07 05:43:14;;;;;;;6.88;3.65;;;;;;;6.00;100.00;96890.34;5056689;28;20017;-84
2022/02/07 05:45:40;;;;;;;6.20;3.42;;;;;;;5.92;100.00;96883.66;5055807;28;20115;-90
2022/02/07 05:48:05;;;;;;;6.63;3.60;;;;;;;5.90;100.00;96855.19;5057838;28;20049;-88
2022/02/07 05:50:31;;;;;;;9.65;3.63;;;;;;;5.83;100.00;96843.84;5056842;28;20086;-86
2022/02/07 05:52:58;;;;;;;8.23;3.90;;;;;;;5.76;100.00;96838.00;5055542;28;20035;-85
2022/02/07 05:55:25;;;;;;;8.52;3.65;;;;;;;5.72;100.00;96831.53;5056735;28;20021;-88
2022/02/07 05:57:50;;;;;;;12.15;4.18;;;;;;;5.71;100.00;96811.75;5064646;28;20079;-86
2022/02/07 06:00:16;;;;;;;9.00;3.97;;;;;;;5.61;100.00;96786.66;5061786;28;20029;-85
2022/02/07 06:02:41;;;;;;;9.05;3.80;;;;;;;5.60;100.00;96795.91;5054403;28;20029;-82
2022/02/07 06:05:07;;;;;;;11.35;4.13;;;;;;;5.48;100.00;96755.66;5053794;28;20029;-86
2022/02/07 06:07:32;;;;;;;7.40;3.83;;;;;;;5.43;100.00;96790.16;5054556;28;20398;-85
2022/02/07 06:09:58;;;;;;;7.93;4.05;;;;;;;5.51;100.00;96824.78;5053499;28;20482;-83
2022/02/07 06:12:23;;;;;;;9.02;4.13;;;;;;;5.43;100.00;96793.66;5054787;28;20371;-82
2022/02/07 06:14:49;;;;;;;12.57;4.65;;;;;;;5.41;100.00;96806.72;5054881;28;20033;-90
2022/02/07 06:17:14;;;;;;;12.57;5.03;;;;;;;5.39;100.00;96782.59;5055562;28;20061;-85
2022/02/07 06:19:40;;;;;;;9.50;5.18;;;;;;;5.13;100.00;96788.63;5057050;28;20029;-85
2022/02/07 06:22:05;;;;;;;18.42;5.88;;;;;;;5.17;100.00;96801.31;5054653;28;20033;-85
2022/02/07 06:24:31;;;;;;;14.05;5.90;;;;;;;5.26;100.00;96813.13;5054921;28;20354;-84
2022/02/07 06:26:56;;;;;;;13.65;5.13;;;;;;;5.12;100.00;96819.53;5053349;28;20147;-86
2022/02/07 06:29:22;;;;;;;10.90;5.53;;;;;;;5.17;100.00;96852.81;5053229;28;20060;-86
2022/02/07 06:31:48;;;;;;;11.20;5.57;;;;;;;5.08;100.00;96851.81;5053694;28;20039;-84
2022/02/07 06:34:13;;;;;;;12.15;5.78;;;;;;;5.22;100.00;96865.50;5054022;28;20035;-84
2022/02/07 06:36:39;;;;;;;11.40;5.72;;;;;;;5.21;100.00;96856.56;5053267;28;20127;-84
2022/02/07 06:39:04;;;;;;;12.43;6.38;;;;;;;5.20;100.00;96852.22;5050450;28;20432;-83
2022/02/07 06:41:30;;;;;;;12.35;7.20;;;;;;;4.98;100.00;96848.44;5050444;28;20474;-78
2022/02/07 06:43:55;;;;;;;13.57;6.97;;;;;;;5.05;100.00;96868.66;5054193;28;20029;-83
2022/02/07 06:46:21;;;;;;;15.63;7.65;;;;;;;5.14;100.00;96869.63;5051499;28;20530;-83
2022/02/07 06:48:46;;;;;;;15.32;7.53;;;;;;;5.16;100.00;96882.91;5051511;28;20036;-82
2022/02/07 06:51:12;;;;;;;14.13;7.68;;;;;;;5.20;100.00;96886.69;5051439;28;20029;-82
2022/02/07 06:53:37;;;;;;;19.10;8.05;;;;;;;5.23;100.00;96892.31;5051776;28;20108;-82
2022/02/07 06:56:04;;;;;;;15.15;8.15;;;;;;;5.26;100.00;96897.16;5050685;28;20025;-83
2022/02/07 06:58:30;;;;;;;16.85;8.35;;;;;;;5.25;100.00;96909.09;5051580;28;20056;-80
2022/02/07 07:00:55;;;;;;;18.17;7.80;;;;;;;5.15;100.00;96911.91;5051298;28;20029;-85
2022/02/07 07:03:21;;;;;;;17.02;8.23;;;;;;;5.14;100.00;96923.84;5051722;28;20108;-82
2022/02/07 07:05:50;;;;;;;18.55;8.75;;;;;;;5.09;100.00;96931.22;5049202;28;20486;-86
2022/02/07 07:08:15;;;;;;;17.35;8.75;;;;;;;5.05;100.00;96930.16;5032382;28;20037;-81
2022/02/07 07:10:41;;;;;;;14.77;8.45;;;;;;;5.01;100.00;96929.94;5037514;28;20048;-86
2022/02/07 07:13:36;;;;;;;14.32;7.50;;;;;;;5.14;100.00;96926.56;5054245;28;20033;-82
2022/02/07 07:16:13;;;;;;;15.45;8.02;;;;;;;5.26;100.00;96932.41;5051706;28;20043;-84
2022/02/07 07:18:38;;;;;;;17.55;8.43;;;;;;;5.33;100.00;96919.31;5051426;28;20029;-83
2022/02/07 07:21:04;;;;;;;13.75;7.55;;;;;;;5.36;100.00;96910.59;5051128;28;20051;-81
2022/02/07 07:23:31;;;;;;;14.68;6.97;;;;;;;5.48;100.00;96933.81;5050357;28;20037;-82
2022/02/07 07:25:56;;;;;;;15.65;8.43;;;;;;;5.61;100.00;96938.53;5052251;28;20025;-82
2022/02/07 07:28:23;;;;;;;16.33;7.85;;;;;;;5.72;100.00;96940.03;5052029;28;20510;-86
2022/02/07 07:30:53;;;;;;;13.88;7.53;;;;;;;5.67;100.00;96934.69;5052248;28;20021;-85
2022/02/07 07:33:22;;;;;;;14.57;7.40;;;;;;;5.82;100.00;96942.66;5052619;28;20124;-83
2022/02/07 07:35:48;;;;;;;14.50;7.70;;;;;;;5.93;100.00;96941.44;5054294;28;20386;-74
2022/02/07 07:38:13;;;;;;;14.57;7.03;;;;;;;5.89;100.00;96938.50;5053173;28;20029;-76
2022/02/07 07:40:40;;;;;;;16.05;7.50;;;;;;;6.09;100.00;96966.47;5054256;28;20021;-74
2022/02/07 07:43:06;;;;;;;13.90;7.22;;;;;;;6.15;100.00;96955.28;5054453;28;20029;-76
2022/02/07 07:45:35;;;;;;;20.45;9.90;;;;;;;6.17;100.00;96942.19;5052340;28;20102;-75
2022/02/07 07:48:05;;;;;;;14.77;6.57;;;;;;;6.09;100.00;96942.06;5048707;28;20039;-74
2022/02/07 07:50:39;;;;;;;16.35;7.45;;;;;;;6.22;100.00;96958.44;5050911;28;20102;-85
2022/02/07 07:53:17;;;;;;;14.25;7.50;;;;;;;6.28;100.00;96981.72;5058318;28;20112;-86
2022/02/07 08:03:43;;;;;;;;;;;;;;;6.54;100.00;96984.91;5036448;28;20132;-87
2022/02/07 08:06:19;;;;;;;8.07;3.08;;;;;;;6.63;97.83;96983.13;5038841;28;20011;-88
2022/02/07 08:11:13;;;;;;;6.15;2.75;;;;;;;6.88;88.95;96982.75;5047603;28;20042;-83
2022/02/07 08:13:41;;;;;;;5.97;2.67;;;;;;;7.07;87.75;96982.72;5075767;28;20033;-89
2022/02/07 08:16:07;;;;;;;6.63;3.63;;;;;;;7.23;86.01;96980.56;5038673;28;20031;-86
2022/02/07 08:18:32;;;;;;;11.95;4.38;;;;;;;7.47;85.75;96990.19;5037362;28;20025;-80
2022/02/07 08:20:58;;;;;;;15.02;5.18;;;;;;;7.68;84.32;97000.69;5039852;28;20026;-83
2022/02/07 08:23:26;;;;;;;11.93;4.38;;;;;;;8.01;83.32;97007.69;5036284;28;20036;-80
2022/02/07 08:25:52;;;;;;;11.90;3.97;;;;;;;8.19;79.93;97014.97;5033518;28;20404;-84
2022/02/07 08:28:18;;;;;;;8.50;3.10;;;;;;;8.32;71.00;97014.19;5035559;28;20021;-86
2022/02/07 08:30:44;;;;;;;7.32;3.00;;;;;;;8.75;68.17;97032.88;5040828;28;20033;-82
2022/02/07 08:33:09;;;;;;;5.20;2.75;;;;;;;9.63;64.18;97030.22;5050806;28;20029;-82
2022/02/07 08:35:35;;;;;;;5.10;1.60;;;;;;;10.39;58.53;97027.41;5042859;28;20033;-84
2022/02/07 08:38:00;;;;;;;4.72;2.00;;;;;;;11.55;51.59;97032.84;5044749;28;20065;-86
2022/02/07 08:40:30;;;;;;;5.10;1.55;;;;;;;13.20;44.93;97042.81;5052582;28;20491;-84
2022/02/07 08:42:55;;;;;;;2.80;1.45;;;;;;;13.66;42.47;97045.34;5048880;28;20510;-83
2022/02/07 08:45:22;;;;;;;8.30;4.10;;;;;;;14.52;39.32;97049.13;5078582;28;20016;-84
2022/02/07 08:47:47;;;;;;;4.07;2.15;;;;;;;14.90;36.31;97058.66;5042386;28;20025;-85
2022/02/07 08:50:13;;;;;;;2.03;1.10;;;;;;;14.99;33.97;97061.28;5038063;28;20092;-73
2022/02/07 08:52:42;;;;;;;1.70;1.10;;;;;;;17.25;30.77;97069.47;5032952;28;20025;-72
2022/02/07 08:55:12;;;;;;;2.35;1.00;;;;;;;18.07;27.49;97079.16;5032710;28;20026;-73
2022/02/07 08:57:43;;;;;;;1.27;0.85;;;;;;;19.98;25.75;97098.19;5046892;28;20139;-74
2022/02/07 09:00:17;;;;;;;1.75;0.90;;;;;;;20.96;23.51;97098.47;5050739;28;20757;-74
2022/02/07 09:08:50;;;;;;;5.85;1.30;;;;;;;22.04;22.13;97113.56;5052027;28;20365;-73
2022/02/07 09:10:42;;;;;;;1.80;1.10;;;;;;;22.37;20.92;97123.66;5051327;28;20045;-72
2022/02/07 09:13:07;;;;;;;1.95;1.10;;;;;;;23.25;19.80;97126.63;5051807;28;20478;-73
2022/02/07 09:18:05;;;;;;;1.92;1.05;;;;;;;22.30;20.45;97138.34;5051890;28;20043;-75
2022/02/07 09:20:31;;;;;;;4.68;1.40;;;;;;;22.63;19.91;97150.41;5045541;28;20463;-75
2022/02/07 09:22:57;;;;;;;2.17;1.15;;;;;;;22.45;19.83;97144.81;5032544;28;20118;-74
2022/02/07 09:25:22;;;;;;;2.40;1.33;;;;;;;22.65;18.17;97156.38;5043707;28;20059;-74
2022/02/07 09:27:48;;;;;;;2.88;1.20;;;;;;;21.67;19.15;97171.41;5051860;28;20036;-73
2022/02/07 09:30:13;;;;;;;3.53;0.90;;;;;;;21.53;18.80;97177.66;5051981;28;20036;-73
2022/02/07 09:32:39;;;;;;;5.20;1.83;;;;;;;22.21;19.25;97184.50;5051104;28;20474;-73
2022/02/07 09:35:04;;;;;;;4.60;1.80;;;;;;;21.88;19.96;97196.63;5050799;28;20529;-73
2022/02/07 09:37:30;;;;;;;1.80;1.13;;;;;;;22.90;18.76;97219.47;5051616;28;20469;-72
2022/02/07 09:39:55;;;;;;;2.33;1.10;;;;;;;22.55;18.57;97226.88;5051972;28;20028;-73
2022/02/07 09:42:21;;;;;;;2.25;1.00;;;;;;;22.06;18.59;97236.56;5051964;28;20555;-72
2022/02/07 09:44:52;;;;;;;5.10;1.02;;;;;;;21.76;18.00;97235.91;5052770;28;20079;-73
2022/02/07 09:47:18;;;;;;;7.78;1.17;;;;;;;21.22;18.67;97242.19;5052357;28;20489;-73
2022/02/07 09:49:47;;;;;;;2.63;1.10;;;;;;;21.08;17.50;97278.94;5066773;28;20021;-82
2022/02/07 09:52:13;;;;;;;1.20;0.70;;;;;;;20.99;17.51;97253.44;5066537;28;20036;-83
2022/02/07 09:54:39;;;;;;;4.22;1.23;;;;;;;21.17;17.10;97268.38;5060207;28;20040;-86
2022/02/07 09:57:07;;;;;;;6.78;1.23;;;;;;;20.72;18.54;97282.50;5069467;28;20072;-82
2022/02/07 09:59:33;;;;;;;2.10;0.75;;;;;;;20.52;18.38;97292.97;5067924;28;20478;-80
2022/02/07 10:02:05;;;;;;;3.67;0.85;;;;;;;20.75;17.84;97287.31;5065094;28;20045;-84
2022/02/07 10:04:56;;;;;;;0.98;0.70;;;;;;;21.49;17.61;97310.44;5069923;28;20037;-84
2022/02/07 10:07:25;;;;;;;1.88;1.05;;;;;;;21.66;17.60;97329.31;5071748;28;20411;-84
2022/02/07 10:10:15;;;;;;;2.50;0.95;;;;;;;21.50;17.33;97339.06;5063592;28;20044;-84
2022/02/07 10:16:05;;;;;;;5.82;1.00;;;;;;;20.70;17.81;97357.16;5049531;28;20128;-73
2022/02/07 10:18:40;;;;;;;1.15;0.80;;;;;;;20.77;17.63;97355.25;5047619;28;20474;-74
2022/02/07 10:35:02;;;;;;;5.30;1.67;;;;;;;10.20;30.01;97426.66;5050912;28;20163;-84
2022/02/07 10:46:14;;;;;;;4.80;1.35;;;;;;;13.51;26.73;97460.06;5050313;28;20024;-74
2022/02/07 10:48:48;;;;;;;3.97;1.27;;;;;;;15.27;24.85;97447.13;5050087;28;20028;-75
2022/02/07 10:51:18;;;;;;;2.60;0.77;;;;;;;16.88;20.80;97453.84;5045052;28;20075;-74
2022/02/07 10:53:52;;;;;;;1.17;0.80;;;;;;;17.17;19.08;97460.19;5050027;28;20021;-75
2022/02/07 10:56:31;;;;;;;3.30;1.15;;;;;;;15.40;21.40;97468.09;5051346;28;20086;-73
2022/02/07 10:58:57;;;;;;;2.92;0.85;;;;;;;16.69;19.85;97467.44;5045463;28;20059;-73
2022/02/07 11:01:49;;;;;;;3.10;1.00;;;;;;;16.04;20.22;97496.81;5047079;28;20056;-73
2022/02/07 11:04:30;;;;;;;2.50;0.60;;;;;;;16.18;18.97;97473.59;5050485;28;20038;-74
2022/02/07 11:07:02;;;;;;;5.55;0.70;;;;;;;15.95;17.99;97471.28;5049879;28;20052;-71
2022/02/07 11:22:08;;;;;;;2.40;1.10;;;;;;;18.93;18.03;97512.00;5053000;28;20035;-73
2022/02/07 11:25:25;;;;;;;3.97;0.85;;;;;;;18.51;18.39;97522.84;5061356;28;20025;-74
2022/02/07 11:27:58;;;;;;;1.75;0.82;;;;;;;18.03;17.76;97525.91;5065061;28;20156;-74
2022/02/07 11:30:46;;;;;;;2.25;0.73;;;;;;;17.48;18.22;97529.44;5057240;28;20050;-74
2022/02/07 11:33:30;;;;;;;3.58;0.75;;;;;;;17.09;17.84;97542.09;5055316;28;20078;-73
2022/02/07 11:35:55;;;;;;;2.08;0.73;;;;;;;16.50;18.65;97541.75;5065249;28;20021;-73
2022/02/07 11:38:21;;;;;;;4.90;0.60;;;;;;;15.74;19.53;97546.94;5047957;28;20033;-71
2022/02/07 11:40:55;;;;;;;1.60;0.85;;;;;;;14.49;20.58;97532.25;5049535;28;20106;-74
2022/02/07 11:43:27;;;;;;;2.40;0.80;;;;;;;13.78;21.96;97553.94;5062616;28;20032;-73
2022/02/07 11:46:08;;;;;;;2.30;0.70;;;;;;;13.34;20.77;97537.81;5054402;28;20115;-72
2022/02/07 11:48:55;;;;;;;2.05;0.70;;;;;;;13.61;21.47;97562.22;5064783;28;20044;-74
2022/02/07 11:51:27;;;;;;;3.13;0.88;;;;;;;13.35;22.38;97561.41;5070429;28;20032;-72
2022/02/07 11:53:59;;;;;;;5.65;0.85;;;;;;;12.96;21.08;97569.72;5057080;28;20393;-73
2022/02/07 11:59:28;;;;;;;5.68;1.08;;;;;;;12.51;21.70;97591.88;5065706;28;20053;-78
2022/02/07 12:02:15;;;;;;;1.77;0.98;;;;;;;12.37;21.54;97591.19;5055175;28;20093;-73
2022/02/07 12:04:46;;;;;;;3.92;0.63;;;;;;;12.42;22.33;97592.97;5063428;28;20466;-73
2022/02/07 12:07:11;;;;;;;1.20;0.70;;;;;;;12.37;21.34;97602.16;5065208;28;20028;-73
2022/02/07 12:09:58;;;;;;;2.15;0.60;;;;;;;11.96;21.74;97591.44;5055428;28;20440;-74
2022/02/07 12:12:33;;;;;;;1.55;0.73;;;;;;;11.36;22.96;97596.44;5052946;28;20068;-72
2022/02/07 12:15:03;;;;;;;1.50;0.67;;;;;;;11.51;22.76;97581.56;5064245;28;20119;-73
2022/02/07 12:17:52;;;;;;;1.17;0.68;;;;;;;11.57;22.60;97600.31;5056307;28;20286;-74
2022/02/07 12:20:21;;;;;;;0.68;0.57;;;;;;;10.99;22.45;97604.94;5045591;28;20119;-73
2022/02/07 12:22:54;;;;;;;2.97;0.80;;;;;;;10.71;22.72;97618.63;5054905;28;20032;-73
2022/02/07 12:25:45;;;;;;;1.13;0.60;;;;;;;10.86;23.16;97616.69;5052241;28;20036;-72
2022/02/07 12:28:39;;;;;;;2.05;0.88;;;;;;;10.75;23.17;97633.31;5052910;28;20029;-74
2022/02/07 12:33:53;;;;;;;0.68;0.52;;;;;;;10.53;23.15;97643.31;5054299;28;20478;-74
2022/02/07 12:36:19;;;;;;;1.38;0.65;;;;;;;10.51;23.59;97642.81;5056235;28;20021;-73
2022/02/07 12:38:44;;;;;;;1.33;0.63;;;;;;;10.91;23.38;97635.72;5061300;28;20048;-73
2022/02/07 12:41:15;;;;;;;11.18;0.95;;;;;;;10.89;23.57;97648.91;5055034;28;20478;-73
2022/02/07 12:43:44;;;;;;;1.45;0.73;;;;;;;10.83;22.84;97666.56;5052528;28;20075;-74
2022/02/07 12:46:13;;;;;;;5.00;1.23;;;;;;;10.82;22.71;97659.47;5055492;28;20047;-74
2022/02/07 12:48:48;;;;;;;2.13;0.70;;;;;;;10.48;23.88;97677.06;5066852;28;20021;-74
2022/02/07 12:51:15;;;;;;;4.40;0.60;;;;;;;10.29;24.55;97684.50;5069097;28;20024;-74
2022/02/07 12:53:40;;;;;;;4.35;0.80;;;;;;;10.14;24.42;97674.66;5060239;28;20115;-74
2022/02/07 12:56:07;;;;;;;3.47;0.50;;;;;;;9.85;25.25;97692.31;5069498;28;20056;-74
2022/02/07 12:58:36;;;;;;;1.15;0.52;;;;;;;9.96;24.20;97696.53;5058113;28;20048;-75
2022/02/07 13:01:20;;;;;;;5.20;0.70;;;;;;;10.05;23.89;97700.22;5059855;28;20108;-73
2022/02/07 13:04:00;;;;;;;3.53;0.50;;;;;;;10.24;24.17;97708.41;5066727;28;20146;-73
2022/02/07 13:06:38;;;;;;;5.63;0.75;;;;;;;10.21;23.92;97704.34;5056262;28;20482;-73
2022/02/07 13:09:17;;;;;;;1.45;0.65;;;;;;;10.19;24.44;97701.91;5058307;28;20885;-76
2022/02/07 13:12:00;;;;;;;1.20;0.50;;;;;;;10.52;24.47;97721.84;5068130;28;20615;-73
2022/02/07 13:14:27;;;;;;;1.23;0.80;;;;;;;10.85;24.71;97717.13;5055809;28;20024;-73
2022/02/07 13:16:53;;;;;;;5.32;1.65;;;;;;;11.18;24.24;97720.59;5049473;28;20025;-73
2022/02/07 13:19:24;;;;;;;0.40;0.40;;;;;;;11.02;23.68;97722.81;5050418;28;20098;-74
2022/02/07 13:21:54;;;;;;;1.80;0.70;;;;;;;11.34;24.61;97737.50;5067287;28;20029;-74
2022/02/07 13:24:27;;;;;;;1.25;0.68;;;;;;;11.14;25.10;97753.22;5058017;28;20036;-73
2022/02/07 13:26:56;;;;;;;0.65;0.45;;;;;;;11.02;24.46;97749.38;5066009;28;20093;-73
2022/02/07 13:29:27;;;;;;;1.23;0.45;;;;;;;10.77;24.29;97751.44;5056680;28;20029;-73
2022/02/07 13:31:59;;;;;;;2.53;0.60;;;;;;;11.06;24.65;97773.06;5058767;28;20074;-74
2022/02/07 13:34:27;;;;;;;1.25;0.60;;;;;;;11.00;25.03;97779.75;5064836;28;20060;-74
2022/02/07 13:36:53;;;;;;;1.25;0.68;;;;;;;10.68;25.03;97797.03;5061233;28;20071;-76
2022/02/07 13:39:21;;;;;;;2.78;0.57;;;;;;;10.50;25.75;97784.22;5058344;28;20021;-75
2022/02/07 13:42:04;;;;;;;1.38;0.60;;;;;;;10.51;25.20;97774.09;5067850;28;20720;-76
2022/02/07 13:44:30;;;;;;;0.65;0.50;;;;;;;10.23;24.77;97778.66;5049892;28;20050;-77
2022/02/07 13:47:03;;;;;;;0.75;0.47;;;;;;;10.07;25.39;97790.88;5052491;28;20071;-73
2022/02/07 13:49:30;;;;;;;1.85;0.73;;;;;;;9.95;25.61;97794.06;5049662;28;20028;-74
2022/02/07 13:51:57;;;;;;;11.18;1.00;;;;;;;10.06;25.76;97805.66;5050151;28;20021;-75
2022/02/07 13:54:30;;;;;;;2.03;0.50;;;;;;;9.86;25.76;97809.50;5051274;28;20027;-73
2022/02/07 13:57:00;;;;;;;1.48;0.50;;;;;;;9.84;26.62;97813.59;5048133;28;20440;-73
2022/02/07 13:59:34;;;;;;;1.67;0.80;;;;;;;9.83;26.19;97820.19;5049935;28;20039;-73
2022/02/07 14:02:00;;;;;;;2.65;0.70;;;;;;;9.94;26.29;97816.22;5047461;28;20405;-74
2022/02/07 14:04:27;;;;;;;1.27;0.50;;;;;;;9.74;26.76;97820.03;5049094;28;20028;-75
2022/02/07 14:07:10;;;;;;;3.20;1.20;;;;;;;9.58;26.53;97826.81;5046806;28;20038;-76
2022/02/07 14:09:38;;;;;;;0.40;0.40;;;;;;;9.52;27.05;97841.63;5049276;28;20100;-75
2022/02/07 14:12:05;;;;;;;0.73;0.50;;;;;;;9.43;27.58;97835.97;5049821;28;20382;-74
2022/02/07 14:14:30;;;;;;;0.80;0.50;;;;;;;9.31;27.69;97832.84;5051139;28;20029;-76
2022/02/07 14:16:56;;;;;;;3.55;0.60;;;;;;;9.43;27.30;97846.88;5049600;28;20800;-75